Time;durP1;ratioP1;P1;durP2;ratioP2;P2;SDS_P1;SDS_P2;PMS_P1;PMS_P2;Temp;Humidity;BMP_temperature;BMP_pressure;BME280_temperature;BME280_humidity;BME280_pressure;Samples;Min_cycle;Max_cycle;Signal;HPM_P1;HPM_P2
2021/07/03 00:00:49;;;;;;;7.13;6.10;;;13.50;99.90;;;;;;5040847;28;20464;-78
2021/07/03 00:03:15;;;;;;;6.53;5.90;;;13.50;99.90;;;;;;5042020;28;20776;-75
2021/07/03 00:05:42;;;;;;;7.50;5.90;;;13.50;99.90;;;;;;5041448;28;20842;-76
2021/07/03 00:08:10;;;;;;;7.17;5.93;;;13.50;99.90;;;;;;5042050;28;20466;-76
2021/07/03 00:10:37;;;;;;;7.43;6.37;;;13.50;99.90;;;;;;5042308;28;20460;-77
2021/07/03 00:13:04;;;;;;;8.33;6.73;;;13.50;99.90;;;;;;5038033;28;20481;-78
2021/07/03 00:15:31;;;;;;;7.13;6.17;;;13.50;99.90;;;;;;5023449;28;20461;-77
2021/07/03 00:17:58;;;;;;;6.00;5.40;;;13.50;99.90;;;;;;5021997;28;20473;-78
2021/07/03 00:20:26;;;;;;;6.53;5.93;;;13.50;99.90;;;;;;5022532;28;20487;-77
2021/07/03 00:22:54;;;;;;;7.30;6.57;;;13.40;99.90;;;;;;5022737;28;20485;-77
2021/07/03 00:25:23;;;;;;;8.40;6.73;;;13.40;99.90;;;;;;5022488;28;20468;-77
2021/07/03 00:27:49;;;;;;;7.47;6.40;;;13.40;99.90;;;;;;5021387;28;20536;-76
2021/07/03 00:30:16;;;;;;;6.93;6.20;;;13.40;99.90;;;;;;5011507;28;20853;-77
2021/07/03 00:32:43;;;;;;;7.10;6.27;;;13.40;99.90;;;;;;5021543;28;20468;-77
2021/07/03 00:35:11;;;;;;;7.17;6.13;;;13.40;99.90;;;;;;5038212;28;20471;-76
2021/07/03 00:37:38;;;;;;;8.13;6.20;;;13.30;99.90;;;;;;5039804;28;20468;-77
2021/07/03 00:40:06;;;;;;;7.20;6.23;;;13.40;99.90;;;;;;5037888;28;20463;-76
2021/07/03 00:42:34;;;;;;;9.60;7.00;;;13.30;99.90;;;;;;5040139;28;20456;-76
2021/07/03 00:45:01;;;;;;;7.87;6.80;;;13.30;99.90;;;;;;5040867;28;20460;-77
2021/07/03 00:47:28;;;;;;;9.80;7.60;;;13.30;99.90;;;;;;5042272;28;21077;-77
2021/07/03 00:49:54;;;;;;;9.80;7.43;;;13.30;99.90;;;;;;5020245;28;20499;-78
2021/07/03 00:52:21;;;;;;;8.47;7.10;;;13.20;99.90;;;;;;5019916;28;20852;-76
2021/07/03 00:54:49;;;;;;;10.33;7.33;;;13.20;99.90;;;;;;5022525;28;20892;-77
2021/07/03 00:57:17;;;;;;;7.97;6.53;;;13.20;99.90;;;;;;5021793;28;20472;-77
2021/07/03 00:59:46;;;;;;;8.93;6.43;;;13.20;99.90;;;;;;5021287;28;20479;-78
2021/07/03 01:02:16;;;;;;;7.77;6.63;;;13.20;99.90;;;;;;5021028;28;20461;-77
2021/07/03 01:04:43;;;;;;;11.53;6.60;;;13.20;99.90;;;;;;5021284;28;20539;-77
2021/07/03 01:07:11;;;;;;;9.10;7.30;;;13.20;99.90;;;;;;5021800;28;20492;-77
2021/07/03 01:09:38;;;;;;;7.80;6.60;;;13.20;99.90;;;;;;5021430;28;20501;-77
2021/07/03 01:12:07;;;;;;;7.60;6.47;;;13.10;99.90;;;;;;5021875;28;20488;-76
2021/07/03 01:14:40;;;;;;;7.73;7.00;;;13.10;99.90;;;;;;5023061;28;20490;-77
2021/07/03 01:17:08;;;;;;;7.10;6.40;;;13.10;99.90;;;;;;5021580;28;20473;-76
2021/07/03 01:19:35;;;;;;;7.03;6.33;;;13.10;99.90;;;;;;5021443;28;20838;-77
2021/07/03 01:22:06;;;;;;;12.23;6.97;;;13.10;99.90;;;;;;5021523;28;20453;-77
2021/07/03 01:24:33;;;;;;;7.50;6.30;;;13.00;99.90;;;;;;5021361;28;20561;-77
2021/07/03 01:27:00;;;;;;;7.50;6.40;;;13.00;99.90;;;;;;5021203;28;20457;-77
2021/07/03 01:29:28;;;;;;;8.00;7.20;;;13.00;99.90;;;;;;5037769;28;20480;-77
2021/07/03 01:31:56;;;;;;;6.50;5.82;;;13.00;99.90;;;;;;5040931;28;20460;-77
2021/07/03 01:34:25;;;;;;;9.43;7.23;;;13.00;99.90;;;;;;5040678;28;20221;-77
2021/07/03 01:36:53;;;;;;;7.27;6.50;;;13.00;99.90;;;;;;5040307;28;20464;-76
2021/07/03 01:39:22;;;;;;;8.00;7.20;;;13.00;99.90;;;;;;5039191;28;20448;-77
2021/07/03 01:41:49;;;;;;;10.80;7.10;;;12.90;99.90;;;;;;5040952;28;20470;-76
2021/07/03 01:44:20;;;;;;;7.73;6.90;;;12.90;99.90;;;;;;5041221;28;20492;-77
2021/07/03 01:46:47;;;;;;;7.63;6.83;;;12.90;99.90;;;;;;5038990;28;20460;-76
2021/07/03 01:49:14;;;;;;;7.77;6.97;;;13.00;99.90;;;;;;5039823;28;20487;-77
2021/07/03 01:51:40;;;;;;;8.27;6.53;;;12.90;99.90;;;;;;5040276;28;20460;-77
2021/07/03 01:54:07;;;;;;;9.00;7.17;;;12.90;99.90;;;;;;5040953;28;20486;-77
2021/07/03 01:56:35;;;;;;;8.77;6.90;;;12.90;99.90;;;;;;5041014;28;20471;-77
2021/07/03 01:59:02;;;;;;;7.70;7.00;;;12.90;99.90;;;;;;5039963;28;20483;-76
2021/07/03 02:01:29;;;;;;;8.10;7.30;;;12.90;99.90;;;;;;5039551;28;20986;-77
2021/07/03 02:03:55;;;;;;;7.63;6.83;;;12.90;99.90;;;;;;5040526;28;20578;-77
2021/07/03 02:06:22;;;;;;;7.90;6.43;;;12.80;99.90;;;;;;5040525;28;20467;-76
2021/07/03 02:08:49;;;;;;;11.00;7.00;;;12.80;99.90;;;;;;5039337;28;20468;-76
2021/07/03 02:11:15;;;;;;;7.27;6.50;;;12.80;99.90;;;;;;5039439;28;20464;-77
2021/07/03 02:13:43;;;;;;;7.57;6.40;;;12.80;99.90;;;;;;5040953;28;20484;-78
2021/07/03 02:16:10;;;;;;;10.80;5.77;;;12.70;99.90;;;;;;5041438;28;20456;-78
2021/07/03 02:18:37;;;;;;;7.57;6.67;;;12.70;99.90;;;;;;5041352;28;20650;-77
2021/07/03 02:21:04;;;;;;;7.43;6.43;;;12.70;99.90;;;;;;5040842;28;20484;-77
2021/07/03 02:23:30;;;;;;;7.50;6.20;;;12.70;99.90;;;;;;5032835;28;20476;-77
2021/07/03 02:25:57;;;;;;;7.57;6.57;;;12.70;99.90;;;;;;5033995;28;20468;-76
2021/07/03 02:28:25;;;;;;;7.23;6.30;;;12.60;99.90;;;;;;5035841;28;20456;-77
2021/07/03 02:30:53;;;;;;;7.13;6.10;;;12.60;99.90;;;;;;5036560;28;20484;-77
2021/07/03 02:33:20;;;;;;;8.20;6.73;;;12.60;99.90;;;;;;5036716;28;20483;-77
2021/07/03 02:35:46;;;;;;;8.70;7.10;;;12.60;99.90;;;;;;5037735;28;21038;-77
2021/07/03 02:38:13;;;;;;;9.33;6.40;;;12.60;99.90;;;;;;5037538;28;20460;-78
2021/07/03 02:40:40;;;;;;;8.33;6.90;;;12.60;99.90;;;;;;5036612;28;20460;-77
2021/07/03 02:43:07;;;;;;;7.07;6.03;;;12.50;99.90;;;;;;5037685;28;20487;-77
2021/07/03 02:45:34;;;;;;;6.60;5.90;;;12.50;99.90;;;;;;5037736;28;20206;-76
2021/07/03 02:48:02;;;;;;;9.13;6.40;;;12.50;99.90;;;;;;5037477;28;20460;-77
2021/07/03 02:50:29;;;;;;;8.73;6.60;;;12.50;99.90;;;;;;5032479;28;21014;-78
2021/07/03 02:52:55;;;;;;;7.73;6.40;;;12.50;99.90;;;;;;5027215;28;20481;-77
2021/07/03 02:55:22;;;;;;;10.20;7.03;;;12.40;99.90;;;;;;5017051;28;20501;-77
2021/07/03 02:57:49;;;;;;;8.52;6.65;;;12.40;99.90;;;;;;5018369;28;20214;-77
2021/07/03 03:00:17;;;;;;;7.30;6.60;;;12.40;99.90;;;;;;5089369;22;20222;-67
2021/07/03 03:02:44;;;;;;;8.23;7.13;;;12.40;99.90;;;;;;5011999;28;20460;-67
2021/07/03 03:05:13;;;;;;;7.25;6.60;;;12.40;99.90;;;;;;5011994;28;20461;-67
2021/07/03 03:07:41;;;;;;;8.40;7.53;;;12.30;99.90;;;;;;5012382;28;20209;-67
2021/07/03 03:10:10;;;;;;;7.80;7.00;;;12.30;99.90;;;;;;5011625;28;20504;-67
2021/07/03 03:12:37;;;;;;;8.98;7.47;;;12.30;99.90;;;;;;5011600;28;20464;-67
2021/07/03 03:15:05;;;;;;;7.30;6.10;;;12.30;99.90;;;;;;5012054;28;20202;-67
2021/07/03 03:17:32;;;;;;;7.50;5.78;;;12.30;99.90;;;;;;5011429;28;20473;-67
2021/07/03 03:19:59;;;;;;;6.87;6.27;;;12.30;99.90;;;;;;5031180;28;20217;-67
2021/07/03 03:22:27;;;;;;;7.82;6.35;;;12.30;99.90;;;;;;5031164;28;20460;-67
2021/07/03 03:24:53;;;;;;;7.53;6.40;;;12.30;99.90;;;;;;5030627;28;20724;-67
2021/07/03 03:27:20;;;;;;;8.40;6.60;;;12.30;99.90;;;;;;5031106;28;20464;-67
2021/07/03 03:29:47;;;;;;;8.00;6.50;;;12.30;99.90;;;;;;5030703;28;20484;-67
2021/07/03 03:32:13;;;;;;;6.78;6.10;;;12.30;99.90;;;;;;5030544;28;20842;-67
2021/07/03 03:34:40;;;;;;;6.83;6.10;;;12.30;99.90;;;;;;5030956;28;20225;-67
2021/07/03 03:37:07;;;;;;;6.40;5.80;;;12.30;99.90;;;;;;5031373;28;20456;-67
2021/07/03 03:39:35;;;;;;;7.80;6.17;;;12.30;99.90;;;;;;5030722;28;20811;-67
2021/07/03 03:42:02;;;;;;;7.85;6.45;;;12.30;99.90;;;;;;5031376;28;20464;-67
2021/07/03 03:44:28;;;;;;;10.30;6.30;;;12.30;99.90;;;;;;5030673;28;20225;-67
2021/07/03 03:46:56;;;;;;;7.57;6.78;;;12.30;99.90;;;;;;5031463;28;20475;-67
2021/07/03 03:49:23;;;;;;;8.00;6.73;;;12.30;99.90;;;;;;5030158;28;20248;-67
2021/07/03 03:51:50;;;;;;;7.27;6.30;;;12.30;99.90;;;;;;5031214;28;20951;-67
2021/07/03 03:54:18;;;;;;;7.40;6.60;;;12.30;99.90;;;;;;5030850;28;20484;-67
2021/07/03 03:56:46;;;;;;;7.50;6.50;;;12.30;99.90;;;;;;5031021;28;20854;-67
2021/07/03 03:59:13;;;;;;;7.90;6.63;;;12.30;99.90;;;;;;5030285;28;20475;-67
2021/07/03 04:01:40;;;;;;;7.95;7.13;;;12.30;99.90;;;;;;5030197;28;20467;-67
2021/07/03 04:04:06;;;;;;;7.50;6.43;;;12.30;99.90;;;;;;5030766;28;20217;-67
2021/07/03 04:06:33;;;;;;;8.00;7.20;;;12.30;99.90;;;;;;5030727;28;20205;-67
2021/07/03 04:09:00;;;;;;;7.20;5.80;;;12.30;99.90;;;;;;5030542;28;20472;-67
2021/07/03 04:11:26;;;;;;;9.27;7.50;;;12.30;99.90;;;;;;5029971;28;20484;-67
2021/07/03 04:13:54;;;;;;;8.73;7.00;;;12.30;99.90;;;;;;5030471;28;20488;-67
2021/07/03 04:16:21;;;;;;;8.73;7.07;;;12.30;99.90;;;;;;5030498;28;20468;-67
2021/07/03 04:18:48;;;;;;;7.22;6.45;;;12.30;99.90;;;;;;5030882;28;20464;-67
2021/07/03 04:21:15;;;;;;;7.73;6.93;;;12.30;99.90;;;;;;5030145;28;20208;-67
2021/07/03 04:23:41;;;;;;;8.75;6.80;;;12.30;99.90;;;;;;5030418;28;20484;-68
2021/07/03 04:26:08;;;;;;;7.43;6.27;;;12.40;99.90;;;;;;5030666;28;20205;-68
2021/07/03 04:28:35;;;;;;;6.93;6.25;;;12.40;99.90;;;;;;5036556;28;20464;-67
2021/07/03 04:31:03;;;;;;;9.82;7.40;;;12.40;99.90;;;;;;5038909;28;20213;-68
2021/07/03 04:33:29;;;;;;;8.63;7.00;;;12.50;99.90;;;;;;5046315;28;20232;-67
2021/07/03 04:35:56;;;;;;;9.17;6.87;;;12.50;99.90;;;;;;5050412;28;20463;-67
2021/07/03 04:38:23;;;;;;;7.43;6.40;;;12.60;99.90;;;;;;5050258;28;20455;-68
2021/07/03 04:40:49;;;;;;;7.60;6.80;;;12.60;99.90;;;;;;5049747;28;20462;-67
2021/07/03 04:43:16;;;;;;;8.90;7.40;;;12.70;99.90;;;;;;5050054;28;20483;-67
2021/07/03 04:45:43;;;;;;;8.10;7.27;;;12.70;99.90;;;;;;5050336;28;20802;-67
2021/07/03 04:48:13;;;;;;;8.60;7.50;;;12.70;99.90;;;;;;5029800;28;20464;-67
2021/07/03 04:50:39;;;;;;;8.37;7.57;;;12.70;99.90;;;;;;5029616;28;20488;-67
2021/07/03 04:53:06;;;;;;;8.67;7.10;;;12.80;99.90;;;;;;5029868;28;20889;-67
2021/07/03 04:55:33;;;;;;;8.67;6.90;;;12.80;99.90;;;;;;5029254;28;20460;-67
2021/07/03 04:57:59;;;;;;;8.70;7.03;;;12.90;99.90;;;;;;5029681;28;20491;-67
2021/07/03 05:00:26;;;;;;;7.93;6.63;;;13.00;99.90;;;;;;5029175;28;20955;-69
2021/07/03 05:02:53;;;;;;;9.47;7.50;;;13.00;99.90;;;;;;5029813;28;21033;-69
2021/07/03 05:05:21;;;;;;;12.67;7.80;;;13.10;99.90;;;;;;5029541;28;20471;-69
2021/07/03 05:07:48;;;;;;;8.53;7.70;;;13.20;99.90;;;;;;5029896;28;20963;-67
2021/07/03 05:10:15;;;;;;;7.60;6.33;;;13.20;99.90;;;;;;5029045;28;20492;-67
2021/07/03 05:12:41;;;;;;;8.13;6.50;;;13.30;99.90;;;;;;5029401;28;21065;-68
2021/07/03 05:15:09;;;;;;;11.73;6.60;;;13.50;99.90;;;;;;5029756;28;20467;-67
2021/07/03 05:17:36;;;;;;;7.80;6.70;;;13.60;99.90;;;;;;5028621;28;20472;-67
2021/07/03 05:20:03;;;;;;;8.27;7.40;;;13.60;99.90;;;;;;5029033;28;20464;-67
2021/07/03 05:22:31;;;;;;;7.70;6.73;;;13.70;99.90;;;;;;5028949;28;20975;-68
2021/07/03 05:24:58;;;;;;;9.00;7.17;;;13.80;99.90;;;;;;5028860;28;20551;-67
2021/07/03 05:27:25;;;;;;;7.60;6.50;;;13.90;99.90;;;;;;5028800;28;20977;-67
2021/07/03 05:29:51;;;;;;;8.83;7.97;;;14.00;99.90;;;;;;5028828;28;20464;-68
2021/07/03 05:32:18;;;;;;;9.97;7.53;;;14.00;99.90;;;;;;5028781;28;20464;-67
2021/07/03 05:34:45;;;;;;;9.38;7.65;;;14.10;99.90;;;;;;5027937;28;20464;-67
2021/07/03 05:37:11;;;;;;;9.00;7.47;;;14.20;99.90;;;;;;5029219;28;20216;-66
2021/07/03 05:39:39;;;;;;;7.90;7.10;;;14.30;99.90;;;;;;5028221;28;20956;-67
2021/07/03 05:42:06;;;;;;;8.80;7.90;;;14.40;99.90;;;;;;5028867;28;20471;-66
2021/07/03 05:44:33;;;;;;;8.13;7.30;;;14.50;99.90;;;;;;5028494;28;20477;-68
2021/07/03 05:47:00;;;;;;;8.20;7.40;;;14.60;99.90;;;;;;5027555;28;20463;-68
2021/07/03 05:49:27;;;;;;;9.27;7.40;;;14.70;99.90;;;;;;5028215;28;20473;-68
2021/07/03 05:51:53;;;;;;;8.93;7.53;;;14.80;99.90;;;;;;5029086;28;20550;-68
2021/07/03 05:54:20;;;;;;;9.10;7.60;;;14.90;99.90;;;;;;5028672;28;20483;-68
2021/07/03 05:56:49;;;;;;;7.80;6.70;;;15.00;99.90;;;;;;5029066;28;20951;-67
2021/07/03 05:59:16;;;;;;;7.63;6.83;;;15.10;99.90;;;;;;5027893;28;20471;-68
2021/07/03 06:01:43;;;;;;;7.70;6.90;;;15.10;99.90;;;;;;5028966;28;21160;-68
2021/07/03 06:04:09;;;;;;;7.37;6.67;;;15.20;99.90;;;;;;5028713;28;20484;-68
2021/07/03 06:06:36;;;;;;;8.07;7.23;;;15.30;99.90;;;;;;5028583;28;20468;-68
2021/07/03 06:09:03;;;;;;;8.03;6.50;;;15.40;99.90;;;;;;5028855;28;20462;-68
2021/07/03 06:11:30;;;;;;;7.13;6.43;;;15.50;99.90;;;;;;5028066;28;20491;-68
2021/07/03 06:14:00;;;;;;;9.80;6.50;;;15.50;99.90;;;;;;5028950;28;20480;-68
2021/07/03 06:16:27;;;;;;;8.73;7.53;;;15.60;99.90;;;;;;5028603;28;20971;-68
2021/07/03 06:18:55;;;;;;;7.70;6.50;;;15.70;99.90;;;;;;5028209;28;20870;-68
2021/07/03 06:21:22;;;;;;;6.50;5.90;;;15.90;99.90;;;;;;5028377;28;20483;-68
2021/07/03 06:23:49;;;;;;;5.70;5.13;;;16.00;99.90;;;;;;5028701;28;20488;-68
2021/07/03 06:26:15;;;;;;;7.63;6.80;;;16.20;99.90;;;;;;5031632;28;20467;-68
2021/07/03 06:28:42;;;;;;;6.73;6.00;;;16.30;99.90;;;;;;5031340;28;20461;-68
2021/07/03 06:31:10;;;;;;;6.63;5.80;;;16.40;99.90;;;;;;5031455;28;20913;-68
2021/07/03 06:33:37;;;;;;;7.10;6.20;;;16.50;99.90;;;;;;5032031;28;20490;-68
2021/07/03 06:36:04;;;;;;;7.00;6.30;;;16.60;99.90;;;;;;5032134;28;20466;-68
2021/07/03 06:38:31;;;;;;;7.93;7.13;;;16.70;99.90;;;;;;5031957;28;20467;-68
2021/07/03 06:40:57;;;;;;;7.63;5.90;;;16.80;99.90;;;;;;5031496;28;20955;-68
2021/07/03 06:43:24;;;;;;;7.30;6.60;;;17.00;99.90;;;;;;5032181;28;20484;-68
2021/07/03 06:45:51;;;;;;;6.53;5.93;;;17.10;99.90;;;;;;5031988;28;20464;-68
2021/07/03 06:48:21;;;;;;;8.27;6.10;;;17.20;99.90;;;;;;5031367;28;20471;-68
2021/07/03 06:50:47;;;;;;;6.33;5.57;;;17.20;99.90;;;;;;5031069;28;20530;-68
2021/07/03 06:53:14;;;;;;;6.90;5.90;;;17.30;99.90;;;;;;5031822;28;20507;-68
2021/07/03 06:55:41;;;;;;;9.13;5.97;;;17.50;99.90;;;;;;5031720;28;20467;-68
2021/07/03 06:58:07;;;;;;;6.30;5.60;;;17.60;99.90;;;;;;5031678;28;20475;-68
2021/07/03 07:00:34;;;;;;;8.10;5.47;;;17.80;99.90;;;;;;5030848;28;20459;-68
2021/07/03 07:03:01;;;;;;;5.90;5.30;;;17.90;99.90;;;;;;5031738;28;20476;-68
2021/07/03 07:05:29;;;;;;;5.97;5.40;;;17.90;99.90;;;;;;5031466;28;20520;-68
2021/07/03 07:07:56;;;;;;;6.53;5.70;;;17.90;99.90;;;;;;5031686;28;20467;-68
2021/07/03 07:10:23;;;;;;;6.83;6.13;;;18.00;99.90;;;;;;5031137;28;20475;-68
2021/07/03 07:12:49;;;;;;;6.17;5.57;;;18.10;99.90;;;;;;5031270;28;20475;-68
2021/07/03 07:15:17;;;;;;;6.00;5.43;;;18.10;99.90;;;;;;5031565;28;21064;-68
2021/07/03 07:17:43;;;;;;;6.50;5.80;;;18.10;99.90;;;;;;5030527;28;20482;-68
2021/07/03 07:20:12;;;;;;;5.70;5.20;;;18.20;99.90;;;;;;5030957;28;20955;-69
2021/07/03 07:22:40;;;;;;;6.47;5.87;;;18.30;99.90;;;;;;5031046;28;20460;-70
2021/07/03 07:25:07;;;;;;;6.53;5.93;;;18.40;99.90;;;;;;5031199;28;20468;-70
2021/07/03 07:27:34;;;;;;;6.57;5.93;;;18.40;99.90;;;;;;5031331;28;20464;-69
2021/07/03 07:30:01;;;;;;;6.40;5.80;;;18.50;99.90;;;;;;5030934;28;20471;-68
2021/07/03 07:32:28;;;;;;;5.90;5.40;;;18.50;99.90;;;;;;5031123;28;21289;-69
2021/07/03 07:34:54;;;;;;;6.70;6.10;;;18.50;99.90;;;;;;5031362;28;20893;-68
2021/07/03 07:37:21;;;;;;;5.40;4.90;;;18.60;99.90;;;;;;5030065;28;20460;-68
2021/07/03 07:39:49;;;;;;;6.57;5.50;;;18.70;99.90;;;;;;5030576;28;20464;-68
2021/07/03 07:42:16;;;;;;;6.53;5.93;;;18.80;99.90;;;;;;5031047;28;20460;-68
2021/07/03 07:44:42;;;;;;;6.67;5.80;;;18.80;99.90;;;;;;5030898;28;20488;-68
2021/07/03 07:47:09;;;;;;;6.93;5.50;;;18.80;99.90;;;;;;5030828;28;20982;-68
2021/07/03 07:49:36;;;;;;;7.73;6.40;;;18.80;99.90;;;;;;5030503;28;20468;-68
2021/07/03 07:52:03;;;;;;;6.97;5.90;;;18.80;99.90;;;;;;5030952;28;20488;-68
2021/07/03 07:54:30;;;;;;;6.40;5.70;;;18.80;99.90;;;;;;5030738;28;20525;-68
2021/07/03 07:56:59;;;;;;;6.57;5.97;;;18.80;99.90;;;;;;5031177;28;20472;-68
2021/07/03 07:59:26;;;;;;;7.50;6.80;;;18.90;99.90;;;;;;5029901;28;20855;-68
2021/07/03 08:01:52;;;;;;;6.80;6.10;;;19.00;99.90;;;;;;5030685;28;20463;-68
2021/07/03 08:04:19;;;;;;;6.53;5.93;;;19.10;99.90;;;;;;5030440;28;20479;-67
2021/07/03 08:06:46;;;;;;;6.07;5.47;;;19.20;99.90;;;;;;5030437;28;20468;-68
2021/07/03 08:09:13;;;;;;;5.80;5.23;;;19.20;99.90;;;;;;5030193;28;20460;-68
2021/07/03 08:11:39;;;;;;;7.40;6.00;;;19.30;99.90;;;;;;5030233;28;20480;-67
2021/07/03 08:14:08;;;;;;;6.27;5.23;;;19.40;99.90;;;;;;5030360;28;21149;-67
2021/07/03 08:16:34;;;;;;;6.87;6.00;;;19.50;99.90;;;;;;5029766;28;20472;-67
2021/07/03 08:19:01;;;;;;;6.00;5.50;;;19.60;99.90;;;;;;5030729;28;20467;-67
2021/07/03 08:21:28;;;;;;;5.90;5.40;;;19.60;99.90;;;;;;5029984;28;20495;-67
2021/07/03 08:23:55;;;;;;;6.23;5.53;;;19.60;99.90;;;;;;5030722;28;20480;-67
2021/07/03 08:26:22;;;;;;;5.80;5.20;;;19.70;99.90;;;;;;5030442;28;20459;-67
2021/07/03 08:28:48;;;;;;;6.37;5.23;;;19.80;99.90;;;;;;5029437;28;20807;-67
2021/07/03 08:31:17;;;;;;;6.10;5.47;;;19.90;99.90;;;;;;5030117;28;20487;-67
2021/07/03 08:33:43;;;;;;;6.60;5.53;;;20.00;99.90;;;;;;5029828;28;20927;-67
2021/07/03 08:36:10;;;;;;;7.03;5.57;;;20.00;99.90;;;;;;5030523;28;20460;-67
2021/07/03 08:38:37;;;;;;;8.30;5.57;;;20.10;99.90;;;;;;5029975;28;20852;-67
2021/07/03 08:41:03;;;;;;;5.63;5.13;;;20.20;99.90;;;;;;5029543;28;20463;-67
2021/07/03 08:43:30;;;;;;;5.87;5.23;;;20.30;99.90;;;;;;5029852;28;20484;-67
2021/07/03 08:45:58;;;;;;;6.20;5.60;;;20.30;99.90;;;;;;5029585;28;20464;-67
2021/07/03 08:48:26;;;;;;;6.20;5.60;;;20.40;99.90;;;;;;5029663;28;20464;-67
2021/07/03 08:50:58;;;;;;;5.83;5.23;;;20.50;99.90;;;;;;5029245;28;20467;-67
2021/07/03 08:53:25;;;;;;;6.20;5.57;;;20.60;99.90;;;;;;5029760;28;20492;-67
2021/07/03 08:55:52;;;;;;;5.97;5.37;;;20.70;99.90;;;;;;5030045;28;20468;-67
2021/07/03 08:58:19;;;;;;;7.73;6.10;;;20.70;99.90;;;;;;5029820;28;20887;-67
2021/07/03 09:00:47;;;;;;;5.97;5.20;;;20.90;99.90;;;;;;5028956;28;20525;-67
2021/07/03 09:03:16;;;;;;;7.03;5.67;;;20.90;99.90;;;;;;5021214;28;20485;-67
2021/07/03 09:05:50;;;;;;;6.03;5.50;;;20.90;99.90;;;;;;5180879;22;20507;-75
2021/07/03 09:08:17;;;;;;;6.77;5.60;;;21.00;99.90;;;;;;5020772;28;20502;-76
2021/07/03 09:10:44;;;;;;;6.23;5.00;;;21.10;99.90;;;;;;5028468;28;20468;-76
2021/07/03 09:13:12;;;;;;;6.00;5.30;;;21.10;99.90;;;;;;5029073;28;20893;-75
2021/07/03 09:15:40;;;;;;;5.67;5.17;;;21.20;99.90;;;;;;5029113;28;20484;-76
2021/07/03 09:18:09;;;;;;;6.03;5.53;;;21.30;99.90;;;;;;5008434;28;20855;-73
2021/07/03 09:20:37;;;;;;;6.20;5.60;;;21.40;99.90;;;;;;5008911;28;20488;-76
2021/07/03 09:23:11;;;;;;;5.83;5.33;;;21.50;99.90;;;;;;5015624;28;20480;-76
2021/07/03 09:25:39;;;;;;;5.17;4.77;;;21.50;99.90;;;;;;5028542;28;20457;-74
2021/07/03 09:28:10;;;;;;;5.43;4.93;;;21.60;99.90;;;;;;5028407;28;20440;-74
2021/07/03 09:30:37;;;;;;;5.87;5.37;;;21.70;99.90;;;;;;5028484;28;20463;-73
2021/07/03 09:33:04;;;;;;;6.20;5.60;;;21.80;99.90;;;;;;5027697;28;20495;-74
2021/07/03 09:35:31;;;;;;;6.77;5.40;;;21.80;99.90;;;;;;5028312;28;20464;-73
2021/07/03 09:38:03;;;;;;;5.90;5.40;;;21.90;99.90;;;;;;5024238;28;20469;-73
2021/07/03 09:40:32;;;;;;;5.87;5.37;;;21.90;99.90;;;;;;5008037;28;20468;-74
2021/07/03 09:43:08;;;;;;;5.90;5.30;;;22.00;99.90;;;;;;5008462;28;20504;-74
2021/07/03 09:45:35;;;;;;;6.73;5.03;;;22.10;99.90;;;;;;5015825;28;20484;-76
2021/07/03 09:48:11;;;;;;;5.20;4.70;;;22.20;99.90;;;;;;5018235;28;20461;-75
2021/07/03 09:50:41;;;;;;;8.30;6.50;;;22.20;99.90;;;;;;5011953;28;20469;-74
2021/07/03 09:53:08;;;;;;;6.20;5.60;;;22.30;99.90;;;;;;5010740;28;20490;-74
2021/07/03 09:55:38;;;;;;;5.40;4.90;;;22.30;99.90;;;;;;5008001;28;20955;-74
2021/07/03 09:58:08;;;;;;;6.17;5.57;;;22.40;99.90;;;;;;5007177;28;20519;-74
2021/07/03 10:00:35;;;;;;;6.23;5.60;;;22.50;99.90;;;;;;5007018;28;20461;-73
2021/07/03 10:03:05;;;;;;;5.70;5.20;;;22.50;99.90;;;;;;5008024;28;21102;-73
2021/07/03 10:05:35;;;;;;;7.70;5.77;;;22.60;99.90;;;;;;5008159;28;21138;-73
2021/07/03 10:08:07;;;;;;;5.87;5.27;;;22.60;99.90;;;;;;5008658;28;20828;-73
2021/07/03 10:10:35;;;;;;;6.43;5.90;;;22.60;99.90;;;;;;5007460;28;20461;-73
2021/07/03 10:13:07;;;;;;;5.97;5.30;;;22.70;99.90;;;;;;5008319;28;20496;-73
2021/07/03 10:15:36;;;;;;;6.17;5.57;;;22.80;99.90;;;;;;5008111;28;20837;-73
2021/07/03 10:18:10;;;;;;;5.97;5.47;;;22.80;99.90;;;;;;5008249;28;20461;-73
2021/07/03 10:20:38;;;;;;;5.37;4.87;;;22.90;99.90;;;;;;5007467;28;21259;-73
2021/07/03 10:23:05;;;;;;;5.47;4.97;;;23.00;99.90;;;;;;5008006;28;20854;-73
2021/07/03 10:25:34;;;;;;;5.37;4.90;;;23.10;99.90;;;;;;5008705;28;20469;-71
2021/07/03 10:28:02;;;;;;;5.50;5.00;;;23.20;99.90;;;;;;5008009;28;20464;-73
2021/07/03 10:30:31;;;;;;;5.70;5.20;;;23.30;99.90;;;;;;5007759;28;20510;-73
2021/07/03 10:32:59;;;;;;;6.10;5.50;;;23.40;99.90;;;;;;5007588;28;20492;-73
2021/07/03 10:35:27;;;;;;;5.50;5.00;;;23.40;99.90;;;;;;5008111;28;20843;-71
2021/07/03 10:37:55;;;;;;;6.43;5.00;;;23.50;99.90;;;;;;5008074;28;20482;-74
2021/07/03 10:40:23;;;;;;;5.30;4.80;;;23.60;99.90;;;;;;5007346;28;20469;-74
2021/07/03 10:42:51;;;;;;;4.90;4.50;;;23.50;99.90;;;;;;5007548;28;20464;-74
2021/07/03 10:45:20;;;;;;;5.00;4.50;;;23.50;99.90;;;;;;5007870;28;20472;-74
2021/07/03 10:47:49;;;;;;;5.33;4.90;;;23.50;99.90;;;;;;5007515;28;20475;-72
2021/07/03 10:50:21;;;;;;;5.50;5.00;;;23.50;99.90;;;;;;5007487;28;20457;-73
2021/07/03 10:52:48;;;;;;;6.70;4.60;;;23.50;99.90;;;;;;5007164;28;20493;-75
2021/07/03 10:55:26;;;;;;;5.20;4.70;;;23.50;99.90;;;;;;5007116;28;20878;-74
2021/07/03 10:57:53;;;;;;;5.40;4.90;;;23.60;99.90;;;;;;5007101;28;20465;-75
2021/07/03 11:00:23;;;;;;;5.50;5.00;;;23.80;99.90;;;;;;5007246;28;20864;-74
2021/07/03 11:02:51;;;;;;;5.90;4.80;;;23.80;99.90;;;;;;5007129;28;20462;-74
2021/07/03 11:05:19;;;;;;;5.00;4.60;;;23.90;99.90;;;;;;5007480;28;20473;-74
2021/07/03 11:07:47;;;;;;;4.87;4.47;;;24.00;99.90;;;;;;5007676;28;20992;-74
2021/07/03 11:10:15;;;;;;;5.00;4.50;;;24.10;99.90;;;;;;5006669;28;21126;-75
2021/07/03 11:12:50;;;;;;;6.67;5.20;;;24.10;99.90;;;;;;5010378;28;20492;-75
2021/07/03 11:15:20;;;;;;;5.10;4.60;;;24.10;99.90;;;;;;5011043;28;20500;-74
2021/07/03 11:17:47;;;;;;;5.10;4.60;;;24.20;99.90;;;;;;5023855;28;20460;-74
2021/07/03 11:20:27;;;;;;;5.10;4.70;;;24.20;99.90;;;;;;5010657;28;20920;-75
2021/07/03 11:22:54;;;;;;;4.63;4.23;;;24.30;99.90;;;;;;5011129;28;20627;-75
2021/07/03 11:25:29;;;;;;;5.00;4.60;;;24.30;99.90;;;;;;5011555;28;20461;-75
2021/07/03 11:28:06;;;;;;;5.37;4.87;;;24.40;99.90;;;;;;5011462;28;20468;-74
2021/07/03 11:30:33;;;;;;;5.03;4.60;;;24.40;99.90;;;;;;5010751;28;20461;-74
2021/07/03 11:33:01;;;;;;;5.07;4.67;;;24.30;99.90;;;;;;5011281;28;20514;-75
2021/07/03 11:35:32;;;;;;;4.80;4.00;;;24.30;99.90;;;;;;5011285;28;20469;-73
2021/07/03 11:37:59;;;;;;;4.60;4.20;;;24.40;99.90;;;;;;5011028;28;20476;-72
2021/07/03 11:40:28;;;;;;;5.47;4.53;;;24.50;99.90;;;;;;5030777;28;20468;-74
2021/07/03 11:43:00;;;;;;;4.73;4.33;;;24.60;99.90;;;;;;5029989;28;20490;-72
2021/07/03 11:45:28;;;;;;;7.20;5.10;;;24.70;99.90;;;;;;5030868;28;20468;-74
2021/07/03 11:48:02;;;;;;;4.63;4.23;;;24.70;99.90;;;;;;5029512;28;20468;-74
2021/07/03 11:50:33;;;;;;;5.53;4.57;;;24.70;99.90;;;;;;5029567;28;20463;-74
2021/07/03 11:53:01;;;;;;;4.90;4.40;;;24.80;99.90;;;;;;5030227;28;20508;-74
2021/07/03 11:55:29;;;;;;;4.27;3.97;;;24.90;99.90;;;;;;5029858;28;20464;-73
2021/07/03 11:57:57;;;;;;;4.20;3.90;;;25.00;99.90;;;;;;5030283;28;20465;-74
2021/07/03 12:00:26;;;;;;;5.33;4.60;;;25.00;99.90;;;;;;5030227;28;20595;-74
2021/07/03 12:02:53;;;;;;;6.87;5.33;;;25.10;99.90;;;;;;5029823;28;20490;-74
2021/07/03 12:05:25;;;;;;;11.23;7.27;;;25.10;99.90;;;;;;5030647;28;20476;-74
2021/07/03 12:08:01;;;;;;;5.43;4.93;;;25.00;99.90;;;;;;5029477;28;20464;-74
2021/07/03 12:10:42;;;;;;;8.30;6.40;;;24.90;99.90;;;;;;5030396;28;20467;-74
2021/07/03 12:13:19;;;;;;;4.97;4.57;;;24.90;99.90;;;;;;5030681;28;20502;-74
2021/07/03 12:15:48;;;;;;;5.43;4.93;;;25.00;99.90;;;;;;5030172;28;20464;-74
2021/07/03 12:18:25;;;;;;;6.10;4.80;;;24.90;99.90;;;;;;5030187;28;20471;-75
2021/07/03 12:21:03;;;;;;;5.97;4.70;;;24.90;99.90;;;;;;5028962;28;20521;-75
2021/07/03 12:23:32;;;;;;;4.83;4.33;;;24.80;99.90;;;;;;5029274;28;20508;-75
2021/07/03 12:25:59;;;;;;;5.60;4.87;;;24.70;99.90;;;;;;5029162;28;20475;-74
2021/07/03 12:28:25;;;;;;;7.70;5.70;;;24.60;99.90;;;;;;5027706;28;20464;-75
2021/07/03 12:30:52;;;;;;;5.87;5.07;;;24.60;99.90;;;;;;5017365;28;20470;-73
2021/07/03 12:33:19;;;;;;;9.20;5.27;;;24.50;99.90;;;;;;5007956;28;20590;-74
2021/07/03 12:35:52;;;;;;;5.33;4.80;;;24.40;99.90;;;;;;5008193;28;20838;-74
2021/07/03 12:38:25;;;;;;;4.97;4.57;;;24.30;99.90;;;;;;5009180;28;20469;-75
2021/07/03 12:40:54;;;;;;;4.37;4.07;;;24.20;99.90;;;;;;5009386;28;20472;-74
2021/07/03 12:43:30;;;;;;;4.33;3.87;;;24.10;99.90;;;;;;5009925;28;20519;-73
2021/07/03 12:46:01;;;;;;;4.67;4.27;;;24.10;99.90;;;;;;5010179;28;20469;-74
2021/07/03 12:48:35;;;;;;;4.40;4.10;;;24.20;99.90;;;;;;5010117;28;20476;-72